sensor_id;sensor_type;location;lat;lon;timestamp;pressure;altitude;pressure_sealevel;temperature;humidity
63663;BME280;49815;51.618;0.336;2022-10-19T00:00:45;101929.98;;;11.83;54.01
63663;BME280;49815;51.618;0.336;2022-10-19T00:03:10;101932.13;;;11.93;54.03
63663;BME280;49815;51.618;0.336;2022-10-19T00:05:36;101932.76;;;12.60;53.37
63663;BME280;49815;51.618;0.336;2022-10-19T00:08:02;101940.16;;;11.91;53.72
63663;BME280;49815;51.618;0.336;2022-10-19T00:10:27;101939.10;;;12.52;53.44
63663;BME280;49815;51.618;0.336;2022-10-19T00:12:52;101939.24;;;12.15;53.39
63663;BME280;49815;51.618;0.336;2022-10-19T00:15:18;101942.64;;;11.79;54.44
63663;BME280;49815;51.618;0.336;2022-10-19T00:17:43;101945.00;;;11.47;54.82
63663;BME280;49815;51.618;0.336;2022-10-19T00:20:09;101946.32;;;11.97;54.94
63663;BME280;49815;51.618;0.336;2022-10-19T00:22:34;101950.96;;;11.88;53.85
63663;BME280;49815;51.618;0.336;2022-10-19T00:24:59;101951.57;;;12.03;54.31
63663;BME280;49815;51.618;0.336;2022-10-19T00:27:24;101948.65;;;12.01;54.70
63663;BME280;49815;51.618;0.336;2022-10-19T00:29:50;101946.19;;;12.27;54.22
63663;BME280;49815;51.618;0.336;2022-10-19T00:32:15;101943.95;;;11.93;54.77
63663;BME280;49815;51.618;0.336;2022-10-19T00:34:40;101937.79;;;11.37;55.75
63663;BME280;49815;51.618;0.336;2022-10-19T00:37:06;101936.03;;;11.82;55.15
63663;BME280;49815;51.618;0.336;2022-10-19T00:39:33;101938.18;;;11.56;54.51
63663;BME280;49815;51.618;0.336;2022-10-19T00:41:56;101937.17;;;11.36;55.33
63663;BME280;49815;51.618;0.336;2022-10-19T00:46:47;101930.96;;;11.70;55.04
63663;BME280;49815;51.618;0.336;2022-10-19T00:49:14;101930.60;;;12.30;53.86
63663;BME280;49815;51.618;0.336;2022-10-19T00:51:40;101924.61;;;11.61;53.82
63663;BME280;49815;51.618;0.336;2022-10-19T00:54:05;101912.99;;;11.80;53.90
63663;BME280;49815;51.618;0.336;2022-10-19T00:56:29;101907.96;;;12.02;53.49
63663;BME280;49815;51.618;0.336;2022-10-19T00:58:55;101904.19;;;12.08;53.80
63663;BME280;49815;51.618;0.336;2022-10-19T01:01:21;101901.05;;;12.15;53.68
63663;BME280;49815;51.618;0.336;2022-10-19T01:03:45;101900.57;;;12.21;53.42
63663;BME280;49815;51.618;0.336;2022-10-19T01:06:11;101912.53;;;11.82;54.27
63663;BME280;49815;51.618;0.336;2022-10-19T01:08:36;101911.37;;;12.07;53.38
63663;BME280;49815;51.618;0.336;2022-10-19T01:11:12;101909.49;;;11.85;53.54
63663;BME280;49815;51.618;0.336;2022-10-19T01:13:35;101906.20;;;11.79;53.47
63663;BME280;49815;51.618;0.336;2022-10-19T01:15:58;101897.12;;;12.19;53.73
63663;BME280;49815;51.618;0.336;2022-10-19T01:18:21;101895.26;;;12.03;53.45
63663;BME280;49815;51.618;0.336;2022-10-19T01:21:00;101896.52;;;12.04;53.58
63663;BME280;49815;51.618;0.336;2022-10-19T01:23:23;101891.96;;;11.61;53.50
63663;BME280;49815;51.618;0.336;2022-10-19T01:25:44;101897.83;;;11.74;54.31
63663;BME280;49815;51.618;0.336;2022-10-19T01:28:11;101896.50;;;11.48;54.40
63663;BME280;49815;51.618;0.336;2022-10-19T01:30:33;101891.42;;;12.06;54.42
63663;BME280;49815;51.618;0.336;2022-10-19T01:32:58;101881.59;;;12.35;54.09
63663;BME280;49815;51.618;0.336;2022-10-19T01:35:20;101873.77;;;12.15;54.02
63663;BME280;49815;51.618;0.336;2022-10-19T01:37:46;101877.38;;;11.42;55.46
63663;BME280;49815;51.618;0.336;2022-10-19T01:40:09;101873.14;;;11.95;54.59
63663;BME280;49815;51.618;0.336;2022-10-19T01:42:37;101874.98;;;11.81;54.31
63663;BME280;49815;51.618;0.336;2022-10-19T01:45:01;101876.76;;;11.80;55.25
63663;BME280;49815;51.618;0.336;2022-10-19T01:47:26;101871.52;;;12.00;54.91
63663;BME280;49815;51.618;0.336;2022-10-19T01:49:53;101866.32;;;12.11;54.71
63663;BME280;49815;51.618;0.336;2022-10-19T01:52:16;101864.94;;;11.65;54.82
63663;BME280;49815;51.618;0.336;2022-10-19T01:54:42;101864.21;;;11.21;55.03
63663;BME280;49815;51.618;0.336;2022-10-19T01:57:06;101865.45;;;11.53;54.94
63663;BME280;49815;51.618;0.336;2022-10-19T01:59:32;101862.44;;;12.15;54.70
63663;BME280;49815;51.618;0.336;2022-10-19T02:01:57;101863.18;;;11.33;55.66
63663;BME280;49815;51.618;0.336;2022-10-19T02:04:22;101857.37;;;11.73;54.96
63663;BME280;49815;51.618;0.336;2022-10-19T02:06:47;101861.20;;;11.74;54.85
63663;BME280;49815;51.618;0.336;2022-10-19T02:09:11;101856.45;;;12.01;55.11
63663;BME280;49815;51.618;0.336;2022-10-19T02:11:37;101863.89;;;11.18;56.81
63663;BME280;49815;51.618;0.336;2022-10-19T02:14:06;101860.48;;;11.55;55.62
63663;BME280;49815;51.618;0.336;2022-10-19T02:16:33;101858.50;;;11.50;56.19
63663;BME280;49815;51.618;0.336;2022-10-19T02:18:54;101856.99;;;11.48;56.50
63663;BME280;49815;51.618;0.336;2022-10-19T02:21:19;101853.91;;;11.66;56.54
63663;BME280;49815;51.618;0.336;2022-10-19T02:23:44;101853.44;;;12.16;55.40
63663;BME280;49815;51.618;0.336;2022-10-19T02:26:09;101844.17;;;11.71;55.12
63663;BME280;49815;51.618;0.336;2022-10-19T02:28:35;101837.80;;;11.98;54.57
63663;BME280;49815;51.618;0.336;2022-10-19T02:31:00;101833.88;;;11.77;55.69
63663;BME280;49815;51.618;0.336;2022-10-19T02:33:26;101835.20;;;11.88;55.31
63663;BME280;49815;51.618;0.336;2022-10-19T02:35:50;101835.07;;;11.82;55.70
63663;BME280;49815;51.618;0.336;2022-10-19T02:38:20;101826.86;;;11.87;54.90
63663;BME280;49815;51.618;0.336;2022-10-19T02:41:00;101818.58;;;11.92;55.61
63663;BME280;49815;51.618;0.336;2022-10-19T02:43:10;101814.13;;;11.62;55.43
63663;BME280;49815;51.618;0.336;2022-10-19T02:45:36;101812.95;;;12.26;55.10
63663;BME280;49815;51.618;0.336;2022-10-19T02:48:01;101809.37;;;11.39;56.06
63663;BME280;49815;51.618;0.336;2022-10-19T02:50:23;101810.85;;;12.00;55.47
63663;BME280;49815;51.618;0.336;2022-10-19T02:52:48;101811.67;;;11.65;55.53
63663;BME280;49815;51.618;0.336;2022-10-19T02:55:13;101811.82;;;11.78;55.64
63663;BME280;49815;51.618;0.336;2022-10-19T02:57:39;101804.04;;;11.43;55.76
63663;BME280;49815;51.618;0.336;2022-10-19T03:00:06;101800.92;;;10.93;56.93
63663;BME280;49815;51.618;0.336;2022-10-19T03:02:30;101800.68;;;11.34;55.91
63663;BME280;49815;51.618;0.336;2022-10-19T03:04:55;101794.24;;;12.35;55.29
63663;BME280;49815;51.618;0.336;2022-10-19T03:07:21;101792.85;;;11.87;55.24
63663;BME280;49815;51.618;0.336;2022-10-19T03:09:46;101787.44;;;11.88;54.95
63663;BME280;49815;51.618;0.336;2022-10-19T03:12:12;101778.26;;;11.33;56.08
63663;BME280;49815;51.618;0.336;2022-10-19T03:14:37;101773.33;;;11.76;56.26
63663;BME280;49815;51.618;0.336;2022-10-19T03:17:03;101768.86;;;11.86;55.67
63663;BME280;49815;51.618;0.336;2022-10-19T03:19:28;101770.11;;;11.75;55.73
63663;BME280;49815;51.618;0.336;2022-10-19T03:21:53;101768.10;;;11.44;56.65
63663;BME280;49815;51.618;0.336;2022-10-19T03:24:19;101756.36;;;11.03;58.26
63663;BME280;49815;51.618;0.336;2022-10-19T03:26:44;101755.34;;;11.73;57.17
63663;BME280;49815;51.618;0.336;2022-10-19T03:29:09;101753.21;;;11.33;57.65
63663;BME280;49815;51.618;0.336;2022-10-19T03:31:35;101749.60;;;11.30;57.53
63663;BME280;49815;51.618;0.336;2022-10-19T03:34:00;101747.00;;;10.90;58.68
63663;BME280;49815;51.618;0.336;2022-10-19T03:36:27;101748.15;;;10.69;59.35
63663;BME280;49815;51.618;0.336;2022-10-19T03:38:52;101741.15;;;10.84;59.08
63663;BME280;49815;51.618;0.336;2022-10-19T03:41:16;101736.37;;;11.17;58.97
63663;BME280;49815;51.618;0.336;2022-10-19T03:43:41;101731.12;;;10.71;59.37
63663;BME280;49815;51.618;0.336;2022-10-19T03:46:07;101733.57;;;10.96;58.83
63663;BME280;49815;51.618;0.336;2022-10-19T03:48:33;101728.18;;;11.38;58.51
63663;BME280;49815;51.618;0.336;2022-10-19T03:50:58;101729.65;;;11.25;58.23
63663;BME280;49815;51.618;0.336;2022-10-19T03:53:23;101734.01;;;11.27;58.92
63663;BME280;49815;51.618;0.336;2022-10-19T03:55:48;101734.20;;;11.52;57.91
63663;BME280;49815;51.618;0.336;2022-10-19T03:58:14;101734.14;;;11.55;57.42
63663;BME280;49815;51.618;0.336;2022-10-19T04:00:39;101737.51;;;10.44;59.61
63663;BME280;49815;51.618;0.336;2022-10-19T04:03:04;101733.68;;;10.88;58.79
63663;BME280;49815;51.618;0.336;2022-10-19T04:05:30;101735.42;;;11.18;57.85
63663;BME280;49815;51.618;0.336;2022-10-19T04:07:55;101736.48;;;10.44;60.02
63663;BME280;49815;51.618;0.336;2022-10-19T04:10:20;101732.03;;;11.02;58.86
63663;BME280;49815;51.618;0.336;2022-10-19T04:12:46;101719.70;;;10.84;59.10
63663;BME280;49815;51.618;0.336;2022-10-19T04:15:11;101713.58;;;10.93;59.42
63663;BME280;49815;51.618;0.336;2022-10-19T04:17:37;101707.28;;;10.83;59.06
63663;BME280;49815;51.618;0.336;2022-10-19T04:20:03;101715.51;;;10.49;60.36
63663;BME280;49815;51.618;0.336;2022-10-19T04:22:28;101719.93;;;10.80;59.68
63663;BME280;49815;51.618;0.336;2022-10-19T04:24:53;101722.93;;;10.66;59.75
63663;BME280;49815;51.618;0.336;2022-10-19T04:27:18;101724.73;;;10.77;60.07
63663;BME280;49815;51.618;0.336;2022-10-19T04:29:43;101717.06;;;10.99;58.74
63663;BME280;49815;51.618;0.336;2022-10-19T04:32:09;101717.08;;;10.60;59.07
63663;BME280;49815;51.618;0.336;2022-10-19T04:34:34;101717.61;;;11.29;58.40
63663;BME280;49815;51.618;0.336;2022-10-19T04:36:59;101722.12;;;10.69;59.50
63663;BME280;49815;51.618;0.336;2022-10-19T04:39:25;101722.72;;;10.57;60.77
63663;BME280;49815;51.618;0.336;2022-10-19T04:41:50;101722.05;;;10.33;60.84
63663;BME280;49815;51.618;0.336;2022-10-19T04:44:16;101718.58;;;10.79;60.28
63663;BME280;49815;51.618;0.336;2022-10-19T04:46:41;101717.36;;;11.17;59.51
63663;BME280;49815;51.618;0.336;2022-10-19T04:49:06;101714.86;;;11.64;58.65
63663;BME280;49815;51.618;0.336;2022-10-19T04:51:33;101711.42;;;11.33;58.81
63663;BME280;49815;51.618;0.336;2022-10-19T04:53:57;101706.74;;;11.28;59.54
63663;BME280;49815;51.618;0.336;2022-10-19T04:56:24;101711.99;;;10.78;60.72
63663;BME280;49815;51.618;0.336;2022-10-19T04:58:49;101706.83;;;11.28;59.09
63663;BME280;49815;51.618;0.336;2022-10-19T05:01:16;101705.34;;;11.45;58.98
63663;BME280;49815;51.618;0.336;2022-10-19T05:03:39;101708.89;;;10.74;60.99
63663;BME280;49815;51.618;0.336;2022-10-19T05:06:05;101703.52;;;10.41;60.69
63663;BME280;49815;51.618;0.336;2022-10-19T05:08:29;101701.48;;;10.23;61.57
63663;BME280;49815;51.618;0.336;2022-10-19T05:11:00;101686.59;;;11.07;59.39
63663;BME280;49815;51.618;0.336;2022-10-19T05:13:20;101684.25;;;11.04;59.73
63663;BME280;49815;51.618;0.336;2022-10-19T05:15:55;101683.95;;;11.22;59.93
63663;BME280;49815;51.618;0.336;2022-10-19T05:18:11;101683.24;;;10.64;59.84
63663;BME280;49815;51.618;0.336;2022-10-19T05:20:36;101683.70;;;10.55;61.49
63663;BME280;49815;51.618;0.336;2022-10-19T05:23:01;101679.95;;;10.92;60.77
63663;BME280;49815;51.618;0.336;2022-10-19T05:25:26;101691.23;;;10.32;62.12
63663;BME280;49815;51.618;0.336;2022-10-19T05:27:52;101691.56;;;10.51;61.72
63663;BME280;49815;51.618;0.336;2022-10-19T05:30:18;101689.25;;;10.29;62.35
63663;BME280;49815;51.618;0.336;2022-10-19T05:32:42;101677.12;;;10.46;61.64
63663;BME280;49815;51.618;0.336;2022-10-19T05:35:08;101677.47;;;11.14;60.07
63663;BME280;49815;51.618;0.336;2022-10-19T05:37:34;101676.47;;;11.35;60.32
63663;BME280;49815;51.618;0.336;2022-10-19T05:39:58;101679.17;;;11.48;59.96
63663;BME280;49815;51.618;0.336;2022-10-19T05:42:23;101674.74;;;10.84;61.30
63663;BME280;49815;51.618;0.336;2022-10-19T05:44:48;101672.26;;;11.72;59.19
63663;BME280;49815;51.618;0.336;2022-10-19T05:47:14;101673.86;;;10.72;60.97
63663;BME280;49815;51.618;0.336;2022-10-19T05:49:39;101676.06;;;11.48;60.02
63663;BME280;49815;51.618;0.336;2022-10-19T05:52:04;101677.03;;;10.63;60.48
63663;BME280;49815;51.618;0.336;2022-10-19T05:54:29;101677.35;;;11.24;60.52
63663;BME280;49815;51.618;0.336;2022-10-19T05:56:55;101677.31;;;11.18;60.53
63663;BME280;49815;51.618;0.336;2022-10-19T05:59:20;101670.61;;;11.55;59.59
63663;BME280;49815;51.618;0.336;2022-10-19T06:01:46;101666.24;;;11.48;59.80
63663;BME280;49815;51.618;0.336;2022-10-19T06:04:12;101661.54;;;10.95;60.25
63663;BME280;49815;51.618;0.336;2022-10-19T06:06:36;101655.49;;;10.98;58.60
63663;BME280;49815;51.618;0.336;2022-10-19T06:09:02;101653.01;;;11.01;59.67
63663;BME280;49815;51.618;0.336;2022-10-19T06:11:29;101642.35;;;11.05;60.12
63663;BME280;49815;51.618;0.336;2022-10-19T06:13:54;101636.82;;;11.48;58.78
63663;BME280;49815;51.618;0.336;2022-10-19T06:16:19;101635.72;;;11.12;59.97
63663;BME280;49815;51.618;0.336;2022-10-19T06:18:44;101635.43;;;11.85;58.40
63663;BME280;49815;51.618;0.336;2022-10-19T06:21:11;101635.37;;;11.52;58.45
63663;BME280;49815;51.618;0.336;2022-10-19T06:23:34;101640.72;;;11.30;59.14
63663;BME280;49815;51.618;0.336;2022-10-19T06:26:02;101648.07;;;11.12;59.78
63663;BME280;49815;51.618;0.336;2022-10-19T06:28:24;101648.55;;;11.13;59.50
63663;BME280;49815;51.618;0.336;2022-10-19T06:30:50;101644.57;;;11.64;58.36
63663;BME280;49815;51.618;0.336;2022-10-19T06:33:15;101640.27;;;11.46;59.28
63663;BME280;49815;51.618;0.336;2022-10-19T06:35:41;101637.35;;;11.76;58.19
63663;BME280;49815;51.618;0.336;2022-10-19T06:38:06;101639.24;;;11.24;58.73
63663;BME280;49815;51.618;0.336;2022-10-19T06:40:31;101634.91;;;11.96;57.72
63663;BME280;49815;51.618;0.336;2022-10-19T06:42:56;101640.63;;;10.93;60.01
63663;BME280;49815;51.618;0.336;2022-10-19T06:45:22;101644.23;;;11.88;58.08
63663;BME280;49815;51.618;0.336;2022-10-19T06:47:47;101647.26;;;12.21;58.02
63663;BME280;49815;51.618;0.336;2022-10-19T06:50:13;101651.25;;;11.82;58.08
63663;BME280;49815;51.618;0.336;2022-10-19T06:52:38;101655.98;;;11.86;58.12
63663;BME280;49815;51.618;0.336;2022-10-19T06:55:05;101649.23;;;11.11;59.86
63663;BME280;49815;51.618;0.336;2022-10-19T06:57:29;101639.59;;;11.50;59.28
63663;BME280;49815;51.618;0.336;2022-10-19T06:59:54;101638.21;;;12.05;57.91
63663;BME280;49815;51.618;0.336;2022-10-19T07:02:20;101641.65;;;11.82;58.16
63663;BME280;49815;51.618;0.336;2022-10-19T07:04:45;101643.67;;;11.68;58.73
63663;BME280;49815;51.618;0.336;2022-10-19T07:07:10;101637.95;;;11.69;58.94
63663;BME280;49815;51.618;0.336;2022-10-19T07:09:36;101635.16;;;11.15;59.32
63663;BME280;49815;51.618;0.336;2022-10-19T07:12:01;101627.43;;;11.17;60.09
63663;BME280;49815;51.618;0.336;2022-10-19T07:14:26;101623.79;;;10.99;60.49
63663;BME280;49815;51.618;0.336;2022-10-19T07:16:52;101625.06;;;11.10;61.54
63663;BME280;49815;51.618;0.336;2022-10-19T07:19:17;101627.63;;;11.77;60.18
63663;BME280;49815;51.618;0.336;2022-10-19T07:21:42;101621.14;;;12.03;58.43
63663;BME280;49815;51.618;0.336;2022-10-19T07:24:08;101624.02;;;11.99;58.43
63663;BME280;49815;51.618;0.336;2022-10-19T07:26:33;101623.14;;;12.28;57.94
63663;BME280;49815;51.618;0.336;2022-10-19T07:28:59;101611.62;;;12.47;57.66
63663;BME280;49815;51.618;0.336;2022-10-19T07:31:25;101609.90;;;11.79;59.78
63663;BME280;49815;51.618;0.336;2022-10-19T07:33:51;101600.82;;;11.78;59.63
63663;BME280;49815;51.618;0.336;2022-10-19T07:36:14;101601.21;;;11.90;59.80
63663;BME280;49815;51.618;0.336;2022-10-19T07:38:40;101601.16;;;12.33;58.13
63663;BME280;49815;51.618;0.336;2022-10-19T07:41:08;101605.35;;;12.06;58.80
63663;BME280;49815;51.618;0.336;2022-10-19T07:43:31;101612.51;;;12.28;58.19
63663;BME280;49815;51.618;0.336;2022-10-19T07:45:58;101605.64;;;12.50;56.64
63663;BME280;49815;51.618;0.336;2022-10-19T07:48:21;101602.48;;;12.51;57.12
63663;BME280;49815;51.618;0.336;2022-10-19T07:50:47;101606.44;;;12.07;58.77
63663;BME280;49815;51.618;0.336;2022-10-19T07:53:12;101602.79;;;12.30;59.07
63663;BME280;49815;51.618;0.336;2022-10-19T07:55:38;101605.60;;;12.06;58.17
63663;BME280;49815;51.618;0.336;2022-10-19T07:58:03;101599.87;;;12.80;56.99
63663;BME280;49815;51.618;0.336;2022-10-19T08:00:28;101601.47;;;12.18;57.94
63663;BME280;49815;51.618;0.336;2022-10-19T08:02:54;101601.48;;;12.17;57.83
63663;BME280;49815;51.618;0.336;2022-10-19T08:05:19;101595.83;;;12.25;57.66
63663;BME280;49815;51.618;0.336;2022-10-19T08:07:45;101599.92;;;12.18;57.72
63663;BME280;49815;51.618;0.336;2022-10-19T08:10:10;101594.94;;;12.87;56.51
63663;BME280;49815;51.618;0.336;2022-10-19T08:12:35;101592.27;;;12.27;57.26
63663;BME280;49815;51.618;0.336;2022-10-19T08:15:02;101594.55;;;12.51;57.57
63663;BME280;49815;51.618;0.336;2022-10-19T08:17:26;101589.11;;;12.74;56.02
63663;BME280;49815;51.618;0.336;2022-10-19T08:19:51;101581.85;;;12.88;55.81
63663;BME280;49815;51.618;0.336;2022-10-19T08:22:17;101580.82;;;12.89;55.90
63663;BME280;49815;51.618;0.336;2022-10-19T08:24:43;101575.62;;;12.28;56.87
63663;BME280;49815;51.618;0.336;2022-10-19T08:27:08;101584.70;;;13.40;55.48
63663;BME280;49815;51.618;0.336;2022-10-19T08:29:33;101578.03;;;13.34;55.95
63663;BME280;49815;51.618;0.336;2022-10-19T08:31:59;101572.63;;;13.19;56.05
63663;BME280;49815;51.618;0.336;2022-10-19T08:34:24;101566.29;;;13.44;54.87
63663;BME280;49815;51.618;0.336;2022-10-19T08:36:50;101567.76;;;12.97;55.88
63663;BME280;49815;51.618;0.336;2022-10-19T08:39:15;101563.72;;;13.89;54.17
63663;BME280;49815;51.618;0.336;2022-10-19T08:41:53;101566.30;;;13.38;54.95
63663;BME280;49815;51.618;0.336;2022-10-19T08:46:38;101559.15;;;13.97;53.89
63663;BME280;49815;51.618;0.336;2022-10-19T08:48:57;101563.32;;;14.42;53.29
63663;BME280;49815;51.618;0.336;2022-10-19T08:51:22;101563.45;;;14.49;52.48
63663;BME280;49815;51.618;0.336;2022-10-19T08:53:52;101556.82;;;14.30;52.17
63663;BME280;49815;51.618;0.336;2022-10-19T08:56:20;101544.06;;;14.66;51.99
63663;BME280;49815;51.618;0.336;2022-10-19T08:58:48;101548.02;;;14.89;51.17
63663;BME280;49815;51.618;0.336;2022-10-19T09:01:08;101549.77;;;15.46;50.00
63663;BME280;49815;51.618;0.336;2022-10-19T09:03:34;101548.91;;;15.20;51.02
63663;BME280;49815;51.618;0.336;2022-10-19T09:06:01;101552.63;;;15.50;50.40
63663;BME280;49815;51.618;0.336;2022-10-19T09:08:20;101551.50;;;15.16;50.06
63663;BME280;49815;51.618;0.336;2022-10-19T09:10:47;101552.19;;;13.39;53.64
63663;BME280;49815;51.618;0.336;2022-10-19T09:13:17;101541.32;;;14.08;52.96
63663;BME280;49815;51.618;0.336;2022-10-19T09:15:39;101537.34;;;14.23;51.85
63663;BME280;49815;51.618;0.336;2022-10-19T09:18:02;101534.35;;;15.32;51.02
63663;BME280;49815;51.618;0.336;2022-10-19T09:20:32;101533.94;;;14.30;51.80
63663;BME280;49815;51.618;0.336;2022-10-19T09:23:01;101523.95;;;14.27;51.77
63663;BME280;49815;51.618;0.336;2022-10-19T09:25:19;101528.80;;;14.50;51.84
63663;BME280;49815;51.618;0.336;2022-10-19T09:27:46;101525.57;;;14.45;50.79
63663;BME280;49815;51.618;0.336;2022-10-19T09:30:16;101527.83;;;14.23;51.55
63663;BME280;49815;51.618;0.336;2022-10-19T09:32:35;101528.89;;;15.08;50.49
63663;BME280;49815;51.618;0.336;2022-10-19T09:35:00;101531.15;;;14.62;51.69
63663;BME280;49815;51.618;0.336;2022-10-19T09:37:24;101532.53;;;14.43;51.49
63663;BME280;49815;51.618;0.336;2022-10-19T09:39:50;101531.41;;;14.44;51.35
63663;BME280;49815;51.618;0.336;2022-10-19T09:42:21;101539.26;;;15.11;50.44
63663;BME280;49815;51.618;0.336;2022-10-19T09:44:41;101540.60;;;13.71;51.88
63663;BME280;49815;51.618;0.336;2022-10-19T09:47:25;101534.39;;;14.49;51.10
63663;BME280;49815;51.618;0.336;2022-10-19T09:49:39;101527.95;;;14.52;51.45
63663;BME280;49815;51.618;0.336;2022-10-19T09:51:57;101522.63;;;14.45;51.08
63663;BME280;49815;51.618;0.336;2022-10-19T09:54:32;101524.22;;;14.76;50.08
63663;BME280;49815;51.618;0.336;2022-10-19T09:56:53;101521.52;;;14.95;50.28
63663;BME280;49815;51.618;0.336;2022-10-19T09:59:21;101527.81;;;14.83;50.20
63663;BME280;49815;51.618;0.336;2022-10-19T10:01:39;101526.26;;;14.47;50.65
63663;BME280;49815;51.618;0.336;2022-10-19T10:04:05;101525.95;;;13.97;51.47
63663;BME280;49815;51.618;0.336;2022-10-19T10:06:29;101523.58;;;14.56;50.45
63663;BME280;49815;51.618;0.336;2022-10-19T10:08:54;101527.33;;;14.41;50.71
63663;BME280;49815;51.618;0.336;2022-10-19T10:11:23;101522.03;;;14.38;51.11
63663;BME280;49815;51.618;0.336;2022-10-19T10:13:49;101520.03;;;14.86;50.13
63663;BME280;49815;51.618;0.336;2022-10-19T10:16:15;101512.21;;;14.14;51.66
63663;BME280;49815;51.618;0.336;2022-10-19T10:18:43;101518.66;;;13.30;52.69
63663;BME280;49815;51.618;0.336;2022-10-19T10:21:03;101516.88;;;13.85;52.47
63663;BME280;49815;51.618;0.336;2022-10-19T10:23:28;101526.93;;;13.96;51.12
63663;BME280;49815;51.618;0.336;2022-10-19T10:25:55;101530.82;;;13.92;52.08
63663;BME280;49815;51.618;0.336;2022-10-19T10:28:18;101520.63;;;14.62;51.24
63663;BME280;49815;51.618;0.336;2022-10-19T10:30:45;101520.66;;;15.37;49.11
63663;BME280;49815;51.618;0.336;2022-10-19T10:33:13;101515.41;;;15.55;48.97
63663;BME280;49815;51.618;0.336;2022-10-19T10:35:34;101502.92;;;15.57;48.18
63663;BME280;49815;51.618;0.336;2022-10-19T10:38:07;101496.02;;;13.99;51.30
63663;BME280;49815;51.618;0.336;2022-10-19T10:40:25;101502.66;;;15.15;50.55
63663;BME280;49815;51.618;0.336;2022-10-19T10:42:50;101495.78;;;15.32;49.57
63663;BME280;49815;51.618;0.336;2022-10-19T10:45:18;101496.20;;;15.12;49.37
63663;BME280;49815;51.618;0.336;2022-10-19T10:47:42;101490.90;;;15.23;49.01
63663;BME280;49815;51.618;0.336;2022-10-19T10:50:06;101483.53;;;14.80;49.74
63663;BME280;49815;51.618;0.336;2022-10-19T10:52:30;101477.70;;;14.64;49.87
63663;BME280;49815;51.618;0.336;2022-10-19T10:55:00;101471.03;;;15.25;48.78
63663;BME280;49815;51.618;0.336;2022-10-19T10:57:21;101474.72;;;14.64;49.74
63663;BME280;49815;51.618;0.336;2022-10-19T10:59:51;101476.44;;;15.00;48.98
63663;BME280;49815;51.618;0.336;2022-10-19T11:02:20;101485.54;;;15.01;48.47
63663;BME280;49815;51.618;0.336;2022-10-19T11:04:38;101477.07;;;14.01;50.78
63663;BME280;49815;51.618;0.336;2022-10-19T11:07:11;101477.08;;;14.78;49.87
63663;BME280;49815;51.618;0.336;2022-10-19T11:09:32;101477.57;;;15.26;48.98
63663;BME280;49815;51.618;0.336;2022-10-19T11:11:53;101472.62;;;15.08;48.73
63663;BME280;49815;51.618;0.336;2022-10-19T11:14:27;101473.03;;;14.79;49.49
63663;BME280;49815;51.618;0.336;2022-10-19T11:16:45;101474.79;;;14.35;49.49
63663;BME280;49815;51.618;0.336;2022-10-19T11:19:13;101474.21;;;14.67;49.44
63663;BME280;49815;51.618;0.336;2022-10-19T11:21:39;101468.92;;;14.93;49.11
63663;BME280;49815;51.618;0.336;2022-10-19T11:24:07;101463.92;;;14.68;49.66
63663;BME280;49815;51.618;0.336;2022-10-19T11:26:34;101458.77;;;15.20;48.60
63663;BME280;49815;51.618;0.336;2022-10-19T11:29:01;101454.65;;;15.16;47.71
63663;BME280;49815;51.618;0.336;2022-10-19T11:31:19;101450.35;;;14.86;48.74
63663;BME280;49815;51.618;0.336;2022-10-19T11:33:50;101443.54;;;14.74;48.86
63663;BME280;49815;51.618;0.336;2022-10-19T11:36:15;101434.29;;;14.15;49.45
63663;BME280;49815;51.618;0.336;2022-10-19T11:38:38;101425.92;;;14.49;50.31
63663;BME280;49815;51.618;0.336;2022-10-19T11:41:06;101422.17;;;14.27;50.50
63663;BME280;49815;51.618;0.336;2022-10-19T11:43:29;101413.82;;;14.20;50.51
63663;BME280;49815;51.618;0.336;2022-10-19T11:45:53;101414.67;;;14.67;50.25
63663;BME280;49815;51.618;0.336;2022-10-19T11:48:29;101401.59;;;15.23;47.93
63663;BME280;49815;51.618;0.336;2022-10-19T11:50:46;101392.51;;;15.54;47.85
63663;BME280;49815;51.618;0.336;2022-10-19T11:53:09;101380.52;;;14.40;48.63
63663;BME280;49815;51.618;0.336;2022-10-19T11:55:36;101370.48;;;14.72;49.47
63663;BME280;49815;51.618;0.336;2022-10-19T11:57:57;101365.51;;;14.92;49.35
63663;BME280;49815;51.618;0.336;2022-10-19T12:00:20;101365.17;;;15.31;48.73
63663;BME280;49815;51.618;0.336;2022-10-19T12:05:12;101364.83;;;14.89;48.44
63663;BME280;49815;51.618;0.336;2022-10-19T12:07:46;101357.40;;;14.38;49.89
63663;BME280;49815;51.618;0.336;2022-10-19T12:10:11;101351.90;;;14.74;48.85
63663;BME280;49815;51.618;0.336;2022-10-19T12:12:30;101347.87;;;13.56;50.41
63663;BME280;49815;51.618;0.336;2022-10-19T12:14:55;101342.82;;;14.79;49.11
63663;BME280;49815;51.618;0.336;2022-10-19T12:17:23;101340.14;;;14.87;48.50
63663;BME280;49815;51.618;0.336;2022-10-19T12:19:46;101326.55;;;15.74;47.95
63663;BME280;49815;51.618;0.336;2022-10-19T12:22:14;101320.46;;;15.73;47.19
63663;BME280;49815;51.618;0.336;2022-10-19T12:24:34;101309.97;;;16.16;46.19
63663;BME280;49815;51.618;0.336;2022-10-19T12:27:00;101307.96;;;15.77;45.50
63663;BME280;49815;51.618;0.336;2022-10-19T12:29:27;101304.61;;;15.57;46.24
63663;BME280;49815;51.618;0.336;2022-10-19T12:31:51;101298.91;;;15.18;46.19
63663;BME280;49815;51.618;0.336;2022-10-19T12:34:25;101296.76;;;15.51;47.02
63663;BME280;49815;51.618;0.336;2022-10-19T12:36:45;101286.74;;;15.48;46.23
63663;BME280;49815;51.618;0.336;2022-10-19T12:39:12;101282.34;;;15.62;46.38
63663;BME280;49815;51.618;0.336;2022-10-19T12:41:37;101270.20;;;14.86;47.48
63663;BME280;49815;51.618;0.336;2022-10-19T12:44:10;101264.01;;;15.24;47.27
63663;BME280;49815;51.618;0.336;2022-10-19T12:46:30;101270.74;;;15.14;46.83